Time;durP1;ratioP1;P1;durP2;ratioP2;P2;SDS_P1;SDS_P2;PMS_P1;PMS_P2;Temp;Humidity;BMP_temperature;BMP_pressure;BME280_temperature;BME280_humidity;BME280_pressure;Samples;Min_cycle;Max_cycle;Signal;HPM_P1;HPM_P2
2022/02/22 13:36:16;;;;;;;3.20;1.33;;;16.90;67.40;;;;;;10613299;27;20514;-66
2022/02/22 13:41:40;;;;;;;4.47;1.43;;;17.00;68.40;;;;;;10611143;28;20575;-67
2022/02/22 13:47:04;;;;;;;4.93;1.83;;;17.10;68.10;;;;;;10599565;27;20209;-66
2022/02/22 13:52:27;;;;;;;7.40;2.20;;;17.20;67.40;;;;;;10610751;28;20206;-66
2022/02/22 13:57:58;;;;;;;4.87;1.40;;;17.30;67.20;;;;;;10605826;27;20214;-66
2022/02/22 14:03:20;;;;;;;6.37;1.93;;;17.30;66.80;;;;;;10582418;27;20194;-67
2022/02/22 14:08:44;;;;;;;5.30;2.03;;;17.30;66.80;;;;;;10568496;28;20223;-66
2022/02/22 14:14:06;;;;;;;5.83;1.70;;;17.30;66.80;;;;;;10609677;27;20217;-66
2022/02/22 14:19:28;;;;;;;4.40;1.60;;;17.30;66.70;;;;;;10611724;27;20218;-66
2022/02/22 14:24:53;;;;;;;3.53;1.53;;;17.40;66.70;;;;;;10652055;27;20186;-65
2022/02/22 14:30:15;;;;;;;5.40;1.30;;;17.40;66.70;;;;;;10650547;27;20209;-65
2022/02/22 14:35:37;;;;;;;3.03;1.20;;;17.40;66.70;;;;;;10645822;27;20221;-66
2022/02/22 14:41:00;;;;;;;3.13;1.50;;;17.40;66.60;;;;;;10661906;27;20218;-65
2022/02/22 14:46:23;;;;;;;5.33;1.47;;;17.40;66.70;;;;;;10630617;27;20213;-66
2022/02/22 14:51:45;;;;;;;4.00;1.67;;;17.40;66.60;;;;;;10617201;27;20268;-66
2022/02/22 14:57:09;;;;;;;3.47;1.50;;;17.40;66.60;;;;;;10622533;27;20574;-65
2022/02/22 15:02:31;;;;;;;4.23;1.60;;;17.40;66.40;;;;;;10614968;27;20190;-65
2022/02/22 15:07:53;;;;;;;3.87;1.50;;;17.40;66.50;;;;;;10617147;27;20218;-66
2022/02/22 15:13:17;;;;;;;3.90;1.40;;;17.40;66.50;;;;;;10628618;27;20729;-65
2022/02/22 15:18:39;;;;;;;4.53;1.77;;;17.40;66.60;;;;;;10620214;27;20432;-65
2022/02/22 15:24:01;;;;;;;2.70;1.53;;;18.30;72.80;;;;;;10621537;27;20659;-66
2022/02/22 15:29:25;;;;;;;5.37;1.47;;;17.90;67.80;;;;;;10600282;27;20919;-66
2022/02/22 15:34:47;;;;;;;6.20;1.63;;;17.80;67.40;;;;;;10577797;28;20221;-67
2022/02/22 15:40:10;;;;;;;2.07;1.30;;;17.80;67.40;;;;;;10592689;27;20218;-67
2022/02/22 15:45:34;;;;;;;3.90;1.50;;;17.70;67.40;;;;;;10619686;27;20198;-67
2022/02/22 15:50:56;;;;;;;4.73;1.30;;;17.70;67.50;;;;;;10638044;27;20236;-66
2022/02/22 15:56:18;;;;;;;4.60;1.40;;;17.70;67.50;;;;;;10662562;27;20213;-68
2022/02/22 16:01:41;;;;;;;3.33;1.07;;;17.70;67.50;;;;;;10641613;27;20217;-67
2022/02/22 16:07:04;;;;;;;2.77;1.03;;;17.60;67.40;;;;;;10606551;27;20614;-70
2022/02/22 16:12:26;;;;;;;3.23;1.10;;;17.60;67.50;;;;;;10616920;27;20682;-69
2022/02/22 16:17:50;;;;;;;3.80;1.20;;;17.60;67.50;;;;;;10649887;27;20227;-68
2022/02/22 16:23:12;;;;;;;2.27;1.30;;;17.60;67.60;;;;;;10656704;27;20233;-68
2022/02/22 16:28:34;;;;;;;4.07;1.80;;;17.60;67.60;;;;;;10643266;27;20910;-70
2022/02/22 16:33:57;;;;;;;2.73;1.13;;;18.10;66.20;;;;;;10649333;27;20873;-68
2022/02/22 16:39:20;;;;;;;4.70;1.33;;;17.80;66.70;;;;;;10653821;27;20826;-69
2022/02/22 16:44:42;;;;;;;3.53;1.17;;;17.70;67.20;;;;;;10611829;27;20198;-70
2022/02/22 16:50:06;;;;;;;3.03;1.27;;;17.70;67.50;;;;;;10632085;27;20705;-70
2022/02/22 16:55:28;;;;;;;2.60;1.10;;;17.60;67.50;;;;;;10657031;27;20221;-69
2022/02/22 17:00:51;;;;;;;3.60;1.23;;;17.60;67.60;;;;;;10653882;27;20225;-69
2022/02/22 17:06:15;;;;;;;2.77;0.90;;;17.60;68.10;;;;;;10651892;27;20204;-69
2022/02/22 17:11:37;;;;;;;3.30;1.20;;;17.60;67.60;;;;;;10655850;27;20217;-68
2022/02/22 17:16:59;;;;;;;3.37;0.90;;;17.60;67.70;;;;;;10661244;27;20563;-68
2022/02/22 17:22:23;;;;;;;2.87;1.10;;;17.60;67.80;;;;;;10658796;27;20193;-70
2022/02/22 17:27:45;;;;;;;3.70;1.20;;;17.60;67.70;;;;;;10648216;27;20908;-69
2022/02/22 17:36:03;;;;;;;2.50;1.20;;;17.60;67.60;;;;;;10530413;28;21104;-64
2022/02/22 17:41:25;;;;;;;4.07;1.50;;;17.80;67.20;;;;;;10568864;28;20425;-66
2022/02/22 17:46:47;;;;;;;4.23;1.53;;;17.90;66.90;;;;;;10569892;28;20199;-66
2022/02/22 17:52:11;;;;;;;4.20;1.37;;;17.80;67.40;;;;;;10554062;28;20217;-65
